Terminal Aerodrome Forecast
Issued by NWS Sioux Falls, SD

Home | Current Version | Previous Version | Graphics & Text | Print | Product List | Glossary Off
Versions: 1 2 3 4 5 6 7 8 9 10 11 12 13 14 15 16 17

000
FTUS43 KFSD 201720
TAFFSD
TAF
KFSD 201720Z 2018/2118 05013KT 3SM -SHRA OVC008
     FM202200 03011KT 3SM -SHRA OVC008
     FM210100 36010KT 6SM -SHRA OVC008
     FM210300 34011KT P6SM VCSH OVC008
     FM210700 31013KT P6SM OVC008
     FM211600 30015G23KT P6SM BKN015=

USA.gov is the U.S. government's official web portal to all federal, state and local government web resources and services.